createdAt,value
2022-11-16T00:01:57.403Z,8.26
2022-11-16T00:04:25.641Z,8.25
2022-11-16T00:06:53.856Z,8.24
2022-11-16T00:09:27.019Z,8.23
2022-11-16T00:11:58.059Z,8.21
2022-11-16T00:14:28.926Z,8.19
2022-11-16T00:16:57.706Z,8.20
2022-11-16T00:19:26.676Z,8.20
2022-11-16T00:21:55.389Z,8.20
2022-11-16T00:24:24.444Z,8.19
2022-11-16T00:26:54.660Z,8.20
2022-11-16T00:29:25.250Z,8.21
2022-11-16T00:31:54.172Z,8.20
2022-11-16T00:34:23.169Z,8.21
2022-11-16T00:36:51.427Z,8.19
2022-11-16T00:39:19.958Z,8.18
2022-11-16T00:41:49.045Z,8.18
2022-11-16T00:44:17.939Z,8.17
2022-11-16T00:46:47.751Z,8.18
2022-11-16T00:49:16.166Z,8.17
2022-11-16T00:51:44.352Z,8.17
2022-11-16T00:54:12.528Z,8.18
2022-11-16T00:56:40.758Z,8.17
2022-11-16T00:59:09.118Z,8.18
2022-11-16T01:01:37.258Z,8.19
2022-11-16T01:04:06.926Z,8.19
2022-11-16T01:06:35.062Z,8.21
2022-11-16T01:09:03.293Z,8.22
2022-11-16T01:11:48.910Z,8.23
2022-11-16T01:14:17.346Z,8.24
2022-11-16T01:16:45.453Z,8.24
2022-11-16T01:19:14.971Z,8.25
2022-11-16T01:21:43.117Z,8.26
2022-11-16T01:24:11.230Z,8.29
2022-11-16T01:26:39.373Z,8.29
2022-11-16T01:29:07.506Z,8.27
2022-11-16T01:31:35.748Z,8.26
2022-11-16T01:34:04.083Z,8.26
2022-11-16T01:36:35.474Z,8.29
2022-11-16T01:39:04.314Z,8.29
2022-11-16T01:41:32.475Z,8.29
2022-11-16T01:44:02.533Z,8.30
2022-11-16T01:46:31.141Z,8.29
2022-11-16T01:49:03.282Z,8.27
2022-11-16T01:51:33.513Z,8.27
2022-11-16T01:54:02.770Z,8.25
2022-11-16T01:56:32.958Z,8.25
2022-11-16T01:59:01.130Z,8.23
2022-11-16T02:01:29.318Z,8.21
2022-11-16T02:03:57.565Z,8.21
2022-11-16T02:06:39.145Z,8.19
2022-11-16T02:09:37.439Z,8.18
2022-11-16T02:12:17.376Z,8.19
2022-11-16T02:14:59.533Z,8.18
2022-11-16T02:17:35.498Z,8.17
2022-11-16T02:20:44.492Z,8.17
2022-11-16T02:23:47.471Z,8.15
2022-11-16T02:26:27.052Z,8.14
2022-11-16T02:29:15.208Z,8.12
2022-11-16T02:31:49.029Z,8.10
2022-11-16T02:34:18.221Z,8.09
2022-11-16T02:36:49.884Z,8.07
2022-11-16T02:39:21.079Z,8.06
2022-11-16T02:41:50.933Z,8.05
2022-11-16T02:44:22.723Z,8.03
2022-11-16T02:46:57.293Z,8.02
2022-11-16T02:49:26.828Z,7.99
2022-11-16T02:51:55.614Z,7.98
2022-11-16T02:54:24.995Z,7.98
2022-11-16T02:56:56.718Z,7.96
2022-11-16T02:59:31.231Z,7.95
2022-11-16T03:02:04.026Z,7.93
2022-11-16T03:04:37.066Z,7.92
2022-11-16T03:07:07.260Z,7.93
2022-11-16T03:09:37.813Z,7.93
2022-11-16T03:12:08.998Z,7.91
2022-11-16T03:14:43.104Z,7.89
2022-11-16T03:17:15.252Z,7.88
2022-11-16T03:19:45.605Z,7.87
2022-11-16T03:22:16.852Z,7.82
2022-11-16T03:24:45.226Z,7.82
2022-11-16T03:27:20.543Z,7.81
2022-11-16T03:29:57.695Z,7.81
2022-11-16T03:32:29.533Z,7.81
2022-11-16T03:35:00.862Z,7.81
2022-11-16T03:37:30.771Z,7.81
2022-11-16T03:40:01.191Z,7.83
2022-11-16T03:42:29.729Z,7.81
2022-11-16T03:44:59.796Z,7.81
2022-11-16T03:47:27.945Z,7.79
2022-11-16T03:49:56.070Z,7.80
2022-11-16T03:52:24.376Z,7.79
2022-11-16T03:54:52.533Z,7.79
2022-11-16T03:57:20.670Z,7.78
2022-11-16T03:59:48.798Z,7.78
2022-11-16T04:02:18.273Z,7.77
2022-11-16T04:05:03.906Z,7.77
2022-11-16T04:07:49.510Z,7.77
2022-11-16T04:10:35.145Z,7.78
2022-11-16T04:13:36.310Z,7.80
2022-11-16T04:16:21.841Z,7.79
2022-11-16T04:19:08.864Z,7.79
2022-11-16T04:21:56.975Z,7.79
2022-11-16T04:24:27.992Z,7.78
2022-11-16T04:27:16.582Z,7.78
2022-11-16T04:29:44.882Z,7.79
2022-11-16T04:32:30.764Z,7.78
2022-11-16T04:35:18.026Z,7.79
2022-11-16T04:37:53.353Z,7.80
2022-11-16T04:40:23.693Z,7.81
2022-11-16T04:42:53.071Z,7.83
2022-11-16T04:45:38.996Z,7.84
2022-11-16T04:48:07.772Z,7.83
2022-11-16T04:50:37.720Z,7.83
2022-11-16T04:53:06.475Z,7.84
2022-11-16T04:55:35.078Z,7.83
2022-11-16T04:58:03.509Z,7.81
2022-11-16T05:00:31.954Z,7.82
2022-11-16T05:03:01.778Z,7.82
2022-11-16T05:05:30.216Z,7.80
2022-11-16T05:07:59.752Z,7.82
2022-11-16T05:10:27.932Z,7.81
2022-11-16T05:12:56.033Z,7.81
2022-11-16T05:15:24.224Z,7.81
2022-11-16T05:17:54.864Z,7.80
2022-11-16T05:20:40.491Z,7.79
2022-11-16T05:23:30.647Z,7.78
2022-11-16T05:25:58.760Z,7.78
2022-11-16T05:28:26.863Z,7.77
2022-11-16T05:30:54.994Z,7.76
2022-11-16T05:33:23.176Z,7.75
2022-11-16T05:35:51.718Z,7.73
2022-11-16T05:38:21.272Z,7.73
2022-11-16T05:40:49.413Z,7.72
2022-11-16T05:43:17.547Z,7.71
2022-11-16T05:45:45.673Z,7.67
2022-11-16T05:48:13.817Z,7.66
2022-11-16T05:50:43.232Z,7.65
2022-11-16T05:53:11.676Z,7.65
2022-11-16T05:55:41.150Z,7.65
2022-11-16T05:58:09.271Z,7.66
2022-11-16T06:00:37.401Z,7.65
2022-11-16T06:03:05.674Z,7.64
2022-11-16T06:05:40.246Z,7.62
2022-11-16T06:08:09.034Z,7.62
2022-11-16T06:10:37.904Z,7.62
2022-11-16T06:13:07.390Z,7.61
2022-11-16T06:15:38.254Z,7.61
2022-11-16T06:18:06.919Z,7.60
2022-11-16T06:20:35.603Z,7.59
2022-11-16T06:23:03.749Z,7.60
2022-11-16T06:25:31.907Z,7.60
2022-11-16T06:28:02.962Z,7.59
2022-11-16T06:30:34.945Z,7.58
2022-11-16T06:33:03.090Z,7.57
2022-11-16T06:35:31.219Z,7.58
2022-11-16T06:37:59.856Z,7.58
2022-11-16T06:40:27.964Z,7.57
2022-11-16T06:42:57.172Z,7.57
2022-11-16T06:45:25.271Z,7.56
2022-11-16T06:47:54.821Z,7.56
2022-11-16T06:50:22.956Z,7.55
2022-11-16T06:52:51.394Z,7.56
2022-11-16T06:55:19.602Z,7.56
2022-11-16T06:57:47.769Z,7.57
2022-11-16T07:00:16.963Z,7.58
2022-11-16T07:02:45.071Z,7.57
2022-11-16T07:05:14.665Z,7.55
2022-11-16T07:07:42.886Z,7.56
2022-11-16T07:10:11.558Z,7.57
2022-11-16T07:12:42.463Z,7.57
2022-11-16T07:15:11.466Z,7.58
2022-11-16T07:17:40.022Z,7.60
2022-11-16T07:20:08.844Z,7.63
2022-11-16T07:22:38.527Z,7.62
2022-11-16T07:25:07.889Z,7.62
2022-11-16T07:27:36.043Z,7.63
2022-11-16T07:30:04.644Z,7.62
2022-11-16T07:32:32.804Z,7.64
2022-11-16T07:35:00.932Z,7.64
2022-11-16T07:37:29.122Z,7.65
2022-11-16T07:39:58.604Z,7.67
2022-11-16T07:42:26.768Z,7.68
2022-11-16T07:44:54.885Z,7.68
2022-11-16T07:47:23.056Z,7.68
2022-11-16T07:49:51.230Z,7.68
2022-11-16T07:52:19.381Z,7.70
2022-11-16T07:54:47.510Z,7.68
2022-11-16T07:57:17.037Z,7.70
2022-11-16T07:59:45.167Z,7.74
2022-11-16T08:02:13.361Z,7.77
2022-11-16T08:04:41.525Z,7.78
2022-11-16T08:07:09.699Z,7.81
2022-11-16T08:09:39.495Z,7.84
2022-11-16T08:12:07.912Z,7.85
2022-11-16T08:14:37.440Z,7.87
2022-11-16T08:17:07.258Z,7.90
2022-11-16T08:19:36.582Z,7.94
2022-11-16T08:22:04.906Z,7.94
2022-11-16T08:24:33.161Z,7.95
2022-11-16T08:27:01.321Z,7.96
2022-11-16T08:29:29.458Z,7.98
2022-11-16T08:31:59.062Z,7.99
2022-11-16T08:34:27.233Z,8.02
2022-11-16T08:36:55.370Z,8.06
2022-11-16T08:39:23.528Z,8.06
2022-11-16T08:41:51.951Z,8.07
2022-11-16T08:44:20.109Z,8.10
2022-11-16T08:46:48.239Z,8.13
2022-11-16T08:49:17.853Z,8.16
2022-11-16T08:51:45.981Z,8.19
2022-11-16T08:54:14.145Z,8.23
2022-11-16T08:56:42.336Z,8.24
2022-11-16T08:59:11.208Z,8.26
2022-11-16T09:01:39.383Z,8.29
2022-11-16T09:04:07.570Z,8.32
2022-11-16T09:06:37.446Z,8.34
2022-11-16T09:09:06.027Z,8.35
2022-11-16T09:11:34.290Z,8.37
2022-11-16T09:14:02.422Z,8.38
2022-11-16T09:16:30.670Z,8.40
2022-11-16T09:18:58.807Z,8.39
2022-11-16T09:21:28.279Z,8.41
2022-11-16T09:23:58.748Z,8.44
2022-11-16T09:26:27.247Z,8.46
2022-11-16T09:28:58.020Z,8.49
2022-11-16T09:31:27.411Z,8.52
2022-11-16T09:33:58.154Z,8.54
2022-11-16T09:36:27.227Z,8.56
2022-11-16T09:39:29.693Z,8.60
2022-11-16T09:42:02.485Z,8.61
2022-11-16T09:44:53.792Z,8.61
2022-11-16T09:47:25.047Z,8.61
2022-11-16T09:49:58.204Z,8.63
2022-11-16T09:52:34.285Z,8.63
2022-11-16T09:55:04.795Z,8.63
2022-11-16T09:57:37.474Z,8.60
2022-11-16T10:00:14.092Z,8.54
2022-11-16T10:02:45.300Z,8.51
2022-11-16T10:05:19.191Z,8.46
2022-11-16T10:07:49.507Z,8.45
2022-11-16T10:10:19.192Z,8.44
2022-11-16T10:12:52.950Z,8.40
2022-11-16T10:15:32.707Z,8.37
2022-11-16T10:18:08.136Z,8.36
2022-11-16T10:20:48.848Z,8.36
2022-11-16T10:23:23.758Z,8.36
2022-11-16T10:25:54.481Z,8.34
2022-11-16T10:28:42.206Z,8.34
2022-11-16T10:31:18.064Z,8.34
2022-11-16T10:33:48.084Z,8.34
2022-11-16T10:36:17.433Z,8.36
2022-11-16T10:38:46.494Z,8.36
2022-11-16T10:41:19.740Z,8.36
2022-11-16T10:43:49.535Z,8.37
2022-11-16T10:46:21.881Z,8.37
2022-11-16T10:48:58.821Z,8.39
2022-11-16T10:51:26.969Z,8.39
2022-11-16T10:53:56.052Z,8.36
2022-11-16T10:56:27.121Z,8.34
2022-11-16T10:59:01.135Z,8.35
2022-11-16T11:01:36.394Z,8.34
2022-11-16T11:04:20.753Z,8.30
2022-11-16T11:06:51.404Z,8.29
2022-11-16T11:09:28.066Z,8.25
2022-11-16T11:12:18.168Z,8.24
2022-11-16T11:15:27.576Z,8.20
2022-11-16T11:18:26.446Z,8.19
2022-11-16T11:21:07.896Z,8.22
2022-11-16T11:23:43.333Z,8.24
2022-11-16T11:26:35.914Z,8.23
2022-11-16T11:29:10.759Z,8.23
2022-11-16T11:31:44.177Z,8.21
2022-11-16T11:34:18.944Z,8.23
2022-11-16T11:36:49.736Z,8.23
2022-11-16T11:39:32.718Z,8.24
2022-11-16T11:42:21.620Z,8.24
2022-11-16T11:44:57.098Z,8.25
2022-11-16T11:48:00.368Z,8.24
2022-11-16T11:50:39.938Z,8.24
2022-11-16T11:53:12.719Z,8.24
2022-11-16T11:55:40.917Z,8.24
2022-11-16T11:58:16.365Z,8.24
2022-11-16T12:00:54.186Z,8.23
2022-11-16T12:04:00.868Z,8.21
2022-11-16T12:06:38.698Z,8.21
2022-11-16T12:09:32.635Z,8.21
2022-11-16T12:12:15.649Z,8.20
2022-11-16T12:14:59.972Z,8.18
2022-11-16T12:17:35.934Z,8.16
2022-11-16T12:20:34.277Z,8.13
2022-11-16T12:23:15.984Z,8.14
2022-11-16T12:25:51.046Z,8.15
2022-11-16T12:28:31.154Z,8.13
2022-11-16T12:31:10.182Z,8.12
2022-11-16T12:33:46.126Z,8.12
2022-11-16T12:36:22.420Z,8.13
2022-11-16T12:39:00.152Z,8.10
2022-11-16T12:42:05.357Z,8.10
2022-11-16T12:44:43.969Z,8.08
2022-11-16T12:47:22.732Z,8.06
2022-11-16T12:50:21.622Z,8.06
2022-11-16T12:53:03.811Z,8.03
2022-11-16T12:55:39.712Z,8.04
2022-11-16T12:58:15.518Z,8.04
2022-11-16T13:00:56.691Z,8.02
2022-11-16T13:03:30.468Z,8.02
2022-11-16T13:06:03.286Z,8.01
2022-11-16T13:08:42.495Z,8.02
2022-11-16T13:11:15.939Z,8.02
2022-11-16T13:13:51.490Z,8.01
2022-11-16T13:16:21.389Z,8.03
2022-11-16T13:18:49.535Z,8.03
2022-11-16T13:21:24.726Z,8.01
2022-11-16T13:24:03.083Z,7.97
2022-11-16T13:26:37.024Z,7.91
2022-11-16T13:29:14.142Z,7.85
2022-11-16T13:31:48.639Z,7.80
2022-11-16T13:34:21.540Z,7.74
2022-11-16T13:36:49.875Z,7.70
2022-11-16T13:39:22.544Z,7.65
2022-11-16T13:42:06.091Z,7.62
2022-11-16T13:44:34.717Z,7.58
2022-11-16T13:47:05.245Z,7.55
2022-11-16T13:49:36.548Z,7.53
2022-11-16T13:52:22.667Z,7.53
2022-11-16T13:54:54.379Z,7.50
2022-11-16T13:57:27.296Z,7.47
2022-11-16T14:00:10.698Z,7.42
2022-11-16T14:02:40.048Z,7.39
2022-11-16T14:05:17.486Z,7.37
2022-11-16T14:07:49.623Z,7.35
2022-11-16T14:10:56.871Z,7.32
2022-11-16T14:13:44.251Z,7.32
2022-11-16T14:16:55.056Z,7.30
2022-11-16T14:19:54.882Z,7.30
2022-11-16T14:22:45.717Z,7.31
2022-11-16T14:25:27.430Z,7.29
2022-11-16T14:28:01.559Z,7.29
2022-11-16T14:30:36.383Z,7.28
2022-11-16T14:33:04.699Z,7.30
2022-11-16T14:35:36.555Z,7.30
2022-11-16T14:38:07.364Z,7.32
2022-11-16T14:40:42.861Z,7.31
2022-11-16T14:43:17.933Z,7.30
2022-11-16T14:45:53.153Z,7.29
2022-11-16T14:48:23.361Z,7.28
2022-11-16T14:51:05.360Z,7.27
2022-11-16T14:53:34.683Z,7.28
2022-11-16T14:56:11.870Z,7.28
2022-11-16T14:58:40.544Z,7.25
2022-11-16T15:01:15.712Z,7.26
2022-11-16T15:03:56.423Z,7.23
2022-11-16T15:06:26.466Z,7.21
2022-11-16T15:08:58.058Z,7.18
2022-11-16T15:11:48.582Z,7.16
2022-11-16T15:14:20.799Z,7.15
2022-11-16T15:16:55.554Z,7.11
2022-11-16T15:19:24.029Z,7.08
2022-11-16T15:21:53.923Z,7.05
2022-11-16T15:24:31.432Z,7.03
2022-11-16T15:27:10.809Z,7.04
2022-11-16T15:29:42.243Z,7.01
2022-11-16T15:32:17.181Z,7.01
2022-11-16T15:34:49.068Z,6.98
2022-11-16T15:37:27.957Z,6.98
2022-11-16T15:39:56.906Z,6.98
2022-11-16T15:42:26.784Z,6.98
2022-11-16T15:44:55.484Z,7.00
2022-11-16T15:47:25.492Z,6.99
2022-11-16T15:49:53.948Z,6.99
2022-11-16T15:52:50.136Z,6.97
2022-11-16T15:55:23.867Z,6.98
2022-11-16T15:58:00.846Z,6.97
2022-11-16T16:00:30.011Z,6.94
2022-11-16T16:03:04.077Z,6.94
2022-11-16T16:05:37.118Z,6.91
2022-11-16T16:08:06.193Z,6.90
2022-11-16T16:10:34.559Z,6.90
2022-11-16T16:13:04.010Z,6.88
2022-11-16T16:15:36.155Z,6.88
2022-11-16T16:18:34.456Z,6.88
2022-11-16T16:21:03.901Z,6.86
2022-11-16T16:23:32.394Z,6.84
2022-11-16T16:26:04.846Z,6.83
2022-11-16T16:28:32.969Z,6.83
2022-11-16T16:31:01.114Z,6.84
2022-11-16T16:33:31.093Z,6.84
2022-11-16T16:35:59.214Z,6.83
2022-11-16T16:38:27.343Z,6.82
2022-11-16T16:41:00.421Z,6.81
2022-11-16T16:43:28.765Z,6.79
2022-11-16T16:45:57.121Z,6.78
2022-11-16T16:48:25.292Z,6.79
2022-11-16T16:50:54.763Z,6.79
2022-11-16T16:53:22.916Z,6.76
2022-11-16T16:55:51.071Z,6.76
2022-11-16T16:58:19.207Z,6.76
2022-11-16T17:00:47.408Z,6.75
2022-11-16T17:03:15.577Z,6.74
2022-11-16T17:05:44.605Z,6.76
2022-11-16T17:08:14.131Z,6.77
2022-11-16T17:10:42.267Z,6.77
2022-11-16T17:13:10.922Z,6.80
2022-11-16T17:15:39.240Z,6.81
2022-11-16T17:18:07.475Z,6.82
2022-11-16T17:20:35.605Z,6.83
2022-11-16T17:23:03.753Z,6.82
2022-11-16T17:25:33.570Z,6.82
2022-11-16T17:28:01.742Z,6.83
2022-11-16T17:30:30.093Z,6.84
2022-11-16T17:32:58.254Z,6.83
2022-11-16T17:35:26.378Z,6.84
2022-11-16T17:37:54.540Z,6.84
2022-11-16T17:40:22.690Z,6.85
2022-11-16T17:42:52.185Z,6.84
2022-11-16T17:45:20.343Z,6.85
2022-11-16T17:47:48.507Z,6.86
2022-11-16T17:50:16.789Z,6.87
2022-11-16T17:52:44.908Z,6.85
2022-11-16T17:55:13.040Z,6.84
2022-11-16T17:57:41.181Z,6.83
2022-11-16T18:00:12.193Z,6.82
2022-11-16T18:02:40.324Z,6.85
2022-11-16T18:05:09.103Z,6.86
2022-11-16T18:07:38.470Z,6.86
2022-11-16T18:10:07.937Z,6.87
2022-11-16T18:12:36.036Z,6.86
2022-11-16T18:15:27.431Z,6.87
2022-11-16T18:17:53.825Z,6.86
2022-11-16T18:20:22.578Z,6.86
2022-11-16T18:22:50.731Z,6.85
2022-11-16T18:25:18.953Z,6.85
2022-11-16T18:27:50.768Z,6.85
2022-11-16T18:30:19.079Z,6.84
2022-11-16T18:32:47.233Z,6.83
2022-11-16T18:35:17.344Z,6.83
2022-11-16T18:37:45.456Z,6.82
2022-11-16T18:40:15.031Z,6.82
2022-11-16T18:42:43.176Z,6.83
2022-11-16T18:45:11.653Z,6.82
2022-11-16T18:47:39.805Z,6.83
2022-11-16T18:50:18.089Z,6.83
2022-11-16T18:52:49.752Z,6.83
2022-11-16T18:55:18.137Z,6.82
2022-11-16T18:57:46.250Z,6.79
2022-11-16T19:00:19.428Z,6.77
2022-11-16T19:02:47.566Z,6.77
2022-11-16T19:05:15.915Z,6.75
2022-11-16T19:07:44.067Z,6.75
2022-11-16T19:10:13.690Z,6.73
2022-11-16T19:12:41.901Z,6.72
2022-11-16T19:15:10.567Z,6.70
2022-11-16T19:17:59.285Z,6.69
2022-11-16T19:20:27.039Z,6.68
2022-11-16T19:22:55.178Z,6.69
2022-11-16T19:25:24.707Z,6.69
2022-11-16T19:27:52.885Z,6.70
2022-11-16T19:30:21.109Z,6.68
2022-11-16T19:32:49.405Z,6.67
2022-11-16T19:35:17.681Z,6.69
2022-11-16T19:37:45.770Z,6.65
2022-11-16T19:40:14.294Z,6.65
2022-11-16T19:42:43.940Z,6.63
2022-11-16T19:45:12.936Z,6.64
2022-11-16T19:47:41.048Z,6.64
2022-11-16T19:50:11.873Z,6.62
2022-11-16T19:52:40.053Z,6.60
2022-11-16T19:55:08.800Z,6.59
2022-11-16T19:57:36.948Z,6.58
2022-11-16T20:00:07.659Z,6.58
2022-11-16T20:02:36.535Z,6.54
2022-11-16T20:05:04.951Z,6.54
2022-11-16T20:07:33.147Z,6.53
2022-11-16T20:10:01.293Z,6.51
2022-11-16T20:12:29.410Z,6.48
2022-11-16T20:14:57.550Z,6.46
2022-11-16T20:17:27.067Z,6.42
2022-11-16T20:19:55.263Z,6.39
2022-11-16T20:22:23.439Z,6.36
2022-11-16T20:24:52.002Z,6.31
2022-11-16T20:27:20.123Z,6.27
2022-11-16T20:29:48.236Z,6.20
2022-11-16T20:32:16.380Z,6.13
2022-11-16T20:34:45.885Z,6.09
2022-11-16T20:37:14.213Z,6.05
2022-11-16T20:39:42.999Z,6.02
2022-11-16T20:42:11.151Z,5.96
2022-11-16T20:44:39.257Z,5.88
2022-11-16T20:47:07.402Z,5.84
2022-11-16T20:49:35.586Z,5.79
2022-11-16T20:52:05.357Z,5.75
2022-11-16T20:54:33.709Z,5.72
2022-11-16T20:57:01.841Z,5.70
2022-11-16T20:59:29.997Z,5.68
2022-11-16T21:01:58.121Z,5.65
2022-11-16T21:04:26.275Z,5.62
2022-11-16T21:06:54.489Z,5.59
2022-11-16T21:09:26.552Z,5.55
2022-11-16T21:12:12.591Z,5.54
2022-11-16T21:14:40.711Z,5.51
2022-11-16T21:17:08.857Z,5.49
2022-11-16T21:19:36.990Z,5.48
2022-11-16T21:22:05.117Z,5.46
2022-11-16T21:24:34.811Z,5.43
2022-11-16T21:27:02.932Z,5.41
2022-11-16T21:29:31.062Z,5.36
2022-11-16T21:31:59.381Z,5.31
2022-11-16T21:34:28.664Z,5.27
2022-11-16T21:36:56.816Z,5.26
2022-11-16T21:39:25.227Z,5.23
2022-11-16T21:41:54.855Z,5.20
2022-11-16T21:44:22.979Z,5.17
2022-11-16T21:46:51.219Z,5.18
2022-11-16T21:49:19.338Z,5.15
2022-11-16T21:51:47.468Z,5.16
2022-11-16T21:54:15.617Z,5.16
2022-11-16T21:56:43.743Z,5.16
2022-11-16T21:59:13.250Z,5.15
2022-11-16T22:01:55.286Z,5.15
2022-11-16T22:04:40.697Z,5.14
2022-11-16T22:07:31.909Z,5.15
2022-11-16T22:10:00.169Z,5.16
2022-11-16T22:12:28.367Z,5.15
2022-11-16T22:14:58.427Z,5.16
2022-11-16T22:17:26.676Z,5.16
2022-11-16T22:19:54.847Z,5.18
2022-11-16T22:22:23.189Z,5.20
2022-11-16T22:24:51.568Z,5.22
2022-11-16T22:27:20.121Z,5.25
2022-11-16T22:29:48.215Z,5.26
2022-11-16T22:32:17.718Z,5.25
2022-11-16T22:34:45.833Z,5.26
2022-11-16T22:37:13.940Z,5.26
2022-11-16T22:39:42.117Z,5.23
2022-11-16T22:42:11.402Z,5.24
2022-11-16T22:44:39.548Z,5.22
2022-11-16T22:47:07.686Z,5.21
2022-11-16T22:49:37.206Z,5.21
2022-11-16T22:52:05.543Z,5.20
2022-11-16T22:54:34.643Z,5.17
2022-11-16T22:57:03.294Z,5.14
2022-11-16T22:59:31.421Z,5.09
2022-11-16T23:02:00.973Z,5.06
2022-11-16T23:04:29.064Z,5.01
2022-11-16T23:06:58.825Z,4.98
2022-11-16T23:09:26.965Z,4.93
2022-11-16T23:12:12.759Z,4.89
2022-11-16T23:14:58.187Z,4.86
2022-11-16T23:17:26.306Z,4.83
2022-11-16T23:20:17.296Z,4.80
2022-11-16T23:23:04.572Z,4.78
2022-11-16T23:25:50.636Z,4.76
2022-11-16T23:28:20.180Z,4.75
2022-11-16T23:30:48.558Z,4.70
2022-11-16T23:33:16.708Z,4.68
2022-11-16T23:35:44.870Z,4.67
2022-11-16T23:38:14.364Z,4.66
2022-11-16T23:40:42.504Z,4.64
2022-11-16T23:43:28.888Z,4.64
2022-11-16T23:45:57.148Z,4.65
2022-11-16T23:48:25.260Z,4.66
2022-11-16T23:50:53.412Z,4.68
2022-11-16T23:53:22.894Z,4.69
2022-11-16T23:55:51.093Z,4.69
2022-11-16T23:58:19.219Z,4.69
